Nearby METAR Reports

 

KLEX - Lexington, Kentucky, USA
Distance from station: WNW 7mi, 11km
Updated: Fri, 23-Jun-2017 9:38pm EDT
Overcast
Overcast
 Wind from SSW
Wind: SSW 5 mph , 7 km/h
Temperature: 70°F , 21°C
Dew Point: 66°F , 19°C
Humidity: 88%
Barometer: 29.81 inHg , 1009.5 hPa
Clouds: Overcast
Visibility: 10 miles , 16 km
Cloud details: Partly cloudy 1000 ft
Overcast 2700 ft
2017/06/24 01:38 KLEX 240138Z 20004KT 10SM SCT010 OVC027 21/19 A2981 RMK AO2 RAE34 P0003 T02060189
KFFT - Frankfort, Kentucky, USA
Distance from station: WNW 26mi, 42km
Updated: Fri, 23-Jun-2017 9:13pm EDT
Light rain, Mist, Overcast
Light rain, Mist, Overcast
 Wind from calm
Wind: Calm
Temperature: 70°F , 21°C
Dew Point: 66°F , 19°C
Humidity: 88%
Barometer: 29.78 inHg , 1008.5 hPa
Summary: Light rain, Mist
Clouds: Overcast
Visibility: 5 miles , 8 km
Cloud details: Partly cloudy 800 ft
Overcast 1400 ft
2017/06/24 01:13 KFFT 240113Z AUTO 00000KT 5SM -RA BR SCT008 OVC014 21/19 A2978 RMK AO2 RAB03 PRESRR P0003 T02110189
 
KIOB - Mount Sterling, Kentucky, USA
Distance from station: E 27mi, 44km
Updated: Fri, 23-Jun-2017 9:35pm EDT
Rain, Overcast
Rain, Overcast
 Wind from NW
Wind: NW 3 mph , 6 km/h
Temperature: 66°F , 19°C
Dew Point: 64°F , 18°C
Humidity: 94%
Barometer: 29.82 inHg , 1009.8 hPa
Summary: Rain
Clouds: Overcast
Visibility: 10 miles , 16 km
Cloud details: Overcast 700 ft
2017/06/24 01:35 KIOB 240135Z AUTO 31003KT 10SM RA OVC007 19/18 A2982 RMK AO2 P0006
KDVK - Danville, Kentucky, USA
Distance from station: SSW 33mi, 53km
Updated: Fri, 23-Jun-2017 9:35pm EDT
Mostly cloudy
Mostly cloudy
 Wind from calm
Wind: Calm
Temperature: 68°F , 20°C
Dew Point: 68°F , 20°C
Humidity: 100%
Barometer: 29.85 inHg , 1010.8 hPa
Clouds: Mostly cloudy
Visibility: 10 miles , 16 km
Cloud details: Partly cloudy 700 ft
Mostly cloudy 1300 ft
Mostly cloudy 5500 ft
2017/06/24 01:35 KDVK 240135Z AUTO 00000KT 10SM SCT007 BKN013 BKN055 20/20 A2985 RMK AO2